Belvedere, California
Current Conditions -  °F | °C
As of 5:38 AM on Saturday 25 Oct 2014 (Local Time) from KOAK Reporting Station
Heavy Rain Heavy Rain  
Wind Chill: 63°   Ceiling: 1500
Heat Index: 63°   Visibility: 4mi
Dew Point: 57°   Wind: 14mph
Humidity: 82%   Direction: 210°SSW
Pressure: 29.94"   Gusts: NA
Location:  37.8931°N, 122.472°W
Report Text: KOAK 251238Z 21012KT 4SM +RA BR SCT008 BKN015 OVC024 17/14 A2994 RMK AO2 P0007
Loading
Personal Weather Stations






























Interactive Weather Map
Tropical Storm Tracking
New forecast layout! Learn more

10-Day Weather Forecast

Advertisements
Track Severe Weather on mobile